Time;durP1;ratioP1;P1;durP2;ratioP2;P2;SDS_P1;SDS_P2;PMS_P1;PMS_P2;Temp;Humidity;BMP_temperature;BMP_pressure;BME280_temperature;BME280_humidity;BME280_pressure;Samples;Min_cycle;Max_cycle;Signal;HPM_P1;HPM_P2
2024/03/28 00:01:24;;;;;;;;;;;;;;;9.13;100.00;97898.34;5050081;28;20411;-79
2024/03/28 00:03:49;;;;;;;;;;;;;;;9.09;100.00;97903.22;5036824;28;19923;-80
2024/03/28 00:06:15;;;;;;;;;;;;;;;9.17;100.00;97899.75;5053992;28;19913;-79
2024/03/28 00:08:42;;;;;;;;;;;;;;;9.21;100.00;97886.66;5053487;28;19913;-79
2024/03/28 00:11:07;;;;;;;;;;;;;;;9.35;100.00;97882.59;5041647;28;19917;-79
2024/03/28 00:13:32;;;;;;;;;;;;;;;9.31;100.00;97879.22;5026222;28;19970;-79
2024/03/28 00:15:58;;;;;;;;;;;;;;;9.25;100.00;97886.50;5053674;28;20296;-80
2024/03/28 00:18:24;;;;;;;;;;;;;;;9.24;100.00;97890.47;5053402;28;19913;-80
2024/03/28 00:20:56;;;;;;;;;;;;;;;9.20;100.00;97889.84;5053418;28;19920;-79
2024/03/28 00:23:22;;;;;;;;;;;;;;;9.17;100.00;97899.00;5053285;28;19970;-80
2024/03/28 00:25:54;;;;;;;;;;;;;;;9.14;100.00;97884.13;5054583;28;19909;-80
2024/03/28 00:28:19;;;;;;;;;;;;;;;9.35;100.00;97894.41;5054836;28;20394;-79
2024/03/28 00:30:44;;;;;;;;;;;;;;;9.46;100.00;97896.78;5053361;28;20055;-79
2024/03/28 00:33:10;;;;;;;;;;;;;;;9.46;100.00;97894.03;5053492;28;20011;-80
2024/03/28 00:35:35;;;;;;;;;;;;;;;9.38;100.00;97890.00;5054440;28;19962;-79
2024/03/28 00:38:00;;;;;;;;;;;;;;;9.40;100.00;97877.28;5046483;28;19913;-80
2024/03/28 00:40:25;;;;;;;;;;;;;;;9.46;100.00;97869.22;5046468;28;19913;-81
2024/03/28 00:42:51;;;;;;;;;;;;;;;9.52;100.00;97861.91;5040105;28;19919;-79
2024/03/28 00:45:16;;;;;;;;;;;;;;;9.45;100.00;97851.13;5052665;28;19913;-80
2024/03/28 00:47:41;;;;;;;;;;;;;;;9.49;100.00;97856.50;5039967;28;19913;-79
2024/03/28 00:50:07;;;;;;;;;;;;;;;9.51;100.00;97838.31;5039467;28;19971;-79
2024/03/28 00:52:32;;;;;;;;;;;;;;;9.64;100.00;97830.72;5053914;28;20388;-80
2024/03/28 00:54:57;;;;;;;;;;;;;;;9.69;100.00;97838.41;5052504;28;20397;-79
2024/03/28 00:57:22;;;;;;;;;;;;;;;9.70;100.00;97831.69;5026451;28;19916;-80
2024/03/28 00:59:50;;;;;;;;;;;;;;;9.76;100.00;97832.59;5041028;28;19917;-80
2024/03/28 01:02:16;;;;;;;;;;;;;;;9.80;100.00;97813.19;5026133;28;19912;-79
2024/03/28 01:04:42;;;;;;;;;;;;;;;9.82;100.00;97808.00;5053652;28;19916;-80
2024/03/28 01:07:07;;;;;;;;;;;;;;;9.91;100.00;97829.31;5019347;28;19917;-80
2024/03/28 01:09:33;;;;;;;;;;;;;;;9.89;100.00;97846.31;5045557;28;19963;-80
2024/03/28 01:11:58;;;;;;;;;;;;;;;9.97;100.00;97847.59;5052086;28;20364;-80
2024/03/28 01:14:23;;;;;;;;;;;;;;;9.83;100.00;97839.84;5053930;28;19913;-80
2024/03/28 01:16:49;;;;;;;;;;;;;;;9.64;100.00;97838.25;5051636;28;20015;-79
2024/03/28 01:19:14;;;;;;;;;;;;;;;9.65;100.00;97818.47;5052479;28;19913;-79
2024/03/28 01:21:39;;;;;;;;;;;;;;;9.57;100.00;97775.06;5052009;28;19917;-80
2024/03/28 01:24:04;;;;;;;;;;;;;;;9.30;100.00;97781.19;5051897;28;19994;-80
2024/03/28 01:26:30;;;;;;;;;;;;;;;9.50;100.00;97792.66;5052441;28;19912;-79
2024/03/28 01:28:55;;;;;;;;;;;;;;;9.51;100.00;97790.66;5052134;28;19919;-80
2024/03/28 01:31:20;;;;;;;;;;;;;;;9.28;100.00;97805.69;5052710;28;19913;-80
2024/03/28 01:33:45;;;;;;;;;;;;;;;9.29;100.00;97812.72;5053274;28;20007;-80
2024/03/28 01:36:11;;;;;;;;;;;;;;;9.50;100.00;97808.44;5052877;28;20343;-80
2024/03/28 01:38:36;;;;;;;;;;;;;;;9.85;100.00;97809.06;5053208;28;19913;-79
2024/03/28 01:41:01;;;;;;;;;;;;;;;9.92;100.00;97804.03;5051866;28;19948;-80
2024/03/28 01:43:26;;;;;;;;;;;;;;;10.01;100.00;97811.56;5053546;28;20457;-80
2024/03/28 01:45:52;;;;;;;;;;;;;;;9.89;100.00;97807.69;5052163;28;19912;-79
2024/03/28 01:48:18;;;;;;;;;;;;;;;9.89;100.00;97806.91;5041546;28;19924;-80
2024/03/28 01:50:43;;;;;;;;;;;;;;;9.69;100.00;97788.00;5050173;28;19917;-80
2024/03/28 01:53:09;;;;;;;;;;;;;;;9.62;100.00;97791.78;5053029;28;20464;-81
2024/03/28 01:55:35;;;;;;;;;;;;;;;9.64;100.00;97783.84;5038413;28;19912;-79
2024/03/28 01:58:01;;;;;;;;;;;;;;;9.69;100.00;97794.28;5052654;28;19909;-80
2024/03/28 02:00:27;;;;;;;;;;;;;;;9.62;100.00;97797.31;5051274;28;19915;-80
2024/03/28 02:02:54;;;;;;;;;;;;;;;9.73;100.00;97805.19;5051578;28;19916;-80
2024/03/28 02:05:19;;;;;;;;;;;;;;;9.76;100.00;97820.84;5038099;28;20034;-79
2024/03/28 02:07:44;;;;;;;;;;;;;;;9.69;100.00;97810.84;5051139;28;19990;-80
2024/03/28 02:10:10;;;;;;;;;;;;;;;9.61;100.00;97801.28;5046369;28;19920;-79
2024/03/28 02:12:35;;;;;;;;;;;;;;;9.59;100.00;97776.16;5043326;28;20054;-79
2024/03/28 02:15:01;;;;;;;;;;;;;;;9.59;100.00;97773.38;5051559;28;20377;-80
2024/03/28 02:17:26;;;;;;;;;;;;;;;9.53;100.00;97771.66;5051648;28;19944;-79
2024/03/28 02:19:51;;;;;;;;;;;;;;;9.54;100.00;97782.25;5050937;28;19939;-78
2024/03/28 02:22:16;;;;;;;;;;;;;;;9.50;100.00;97794.63;5040698;28;19919;-79
2024/03/28 02:24:42;;;;;;;;;;;;;;;9.46;100.00;97803.06;5048757;28;19916;-79
2024/03/28 02:27:08;;;;;;;;;;;;;;;9.52;100.00;97786.69;5051944;28;19944;-79
2024/03/28 02:29:33;;;;;;;;;;;;;;;9.42;100.00;97780.34;5046301;28;19955;-80
2024/03/28 02:31:58;;;;;;;;;;;;;;;9.35;100.00;97786.13;5040829;28;19974;-80
2024/03/28 02:34:23;;;;;;;;;;;;;;;9.43;100.00;97762.59;5050308;28;19954;-80
2024/03/28 02:36:49;;;;;;;;;;;;;;;9.45;100.00;97767.66;5040804;28;19967;-79
2024/03/28 02:39:14;;;;;;;;;;;;;;;9.28;100.00;97764.34;5047580;28;20016;-80
2024/03/28 02:41:40;;;;;;;;;;;;;;;9.24;100.00;97752.66;5041091;28;19917;-79
2024/03/28 02:44:05;;;;;;;;;;;;;;;9.25;100.00;97765.25;5047899;28;19909;-80
2024/03/28 02:46:30;;;;;;;;;;;;;;;9.18;100.00;97759.97;5050863;28;20304;-79
2024/03/28 02:48:56;;;;;;;;;;;;;;;9.18;100.00;97758.00;5050682;28;19916;-82
2024/03/28 02:51:21;;;;;;;;;;;;;;;9.11;100.00;97769.28;5050794;28;19963;-81
2024/03/28 02:53:46;;;;;;;;;;;;;;;9.12;100.00;97761.78;5050408;28;19912;-79
2024/03/28 02:56:11;;;;;;;;;;;;;;;9.17;100.00;97750.19;5050500;28;19908;-80
2024/03/28 02:58:37;;;;;;;;;;;;;;;9.19;100.00;97754.03;5047837;28;19955;-80
2024/03/28 03:01:02;;;;;;;;;;;;;;;9.06;100.00;97744.28;5040443;28;19916;-80
2024/03/28 03:03:28;;;;;;;;;;;;;;;9.41;100.00;97748.47;5050167;28;19934;-80
2024/03/28 03:05:53;;;;;;;;;;;;;;;9.28;100.00;97736.78;5051728;28;19908;-80
2024/03/28 03:08:18;;;;;;;;;;;;;;;9.07;100.00;97741.09;5036672;28;19920;-80
2024/03/28 03:10:44;;;;;;;;;;;;;;;9.02;100.00;97738.91;5041462;28;19913;-80
2024/03/28 03:13:09;;;;;;;;;;;;;;;9.01;100.00;97736.59;5046666;28;19921;-81
2024/03/28 03:15:34;;;;;;;;;;;;;;;9.04;100.00;97721.94;5050619;28;20347;-80
2024/03/28 03:17:59;;;;;;;;;;;;;;;9.06;100.00;97720.25;5050423;28;20019;-80
2024/03/28 03:20:25;;;;;;;;;;;;;;;9.01;100.00;97711.81;5050238;28;19913;-79
2024/03/28 03:22:52;;;;;;;;;;;;;;;8.97;100.00;97704.47;5049978;28;19920;-80
2024/03/28 03:25:28;;;;;;;;;;;;;;;8.94;100.00;97713.63;5050340;28;19912;-80
2024/03/28 03:36:05;;;;;;;;;;;;;;;9.33;100.00;97711.38;5051617;28;19966;-79
2024/03/28 03:38:31;;;;;;;;;;;;;;;9.02;100.00;97705.84;5051348;28;19951;-80
2024/03/28 03:40:59;;;;;;;;;;;;;;;9.05;100.00;97712.44;5053855;28;19913;-80
2024/03/28 03:43:24;;;;;;;;;;;;;;;9.05;100.00;97715.97;5054024;28;19920;-80
2024/03/28 03:45:50;;;;;;;;;;;;;;;8.97;100.00;97720.22;5054012;28;19924;-79
2024/03/28 03:48:15;;;;;;;;;;;;;;;8.39;100.00;97723.44;5054188;28;19920;-81
2024/03/28 03:50:41;;;;;;;;;;;;;;;8.20;100.00;97715.44;5054299;28;20353;-80
2024/03/28 03:53:06;;;;;;;;;;;;;;;8.02;100.00;97714.03;5053901;28;19917;-80
2024/03/28 03:55:31;;;;;;;;;;;;;;;7.86;100.00;97713.41;5053274;28;19996;-79
2024/03/28 03:57:56;;;;;;;;;;;;;;;7.87;100.00;97723.19;5053233;28;19919;-80
2024/03/28 04:00:22;;;;;;;;;;;;;;;8.02;100.00;97724.25;5053469;28;19970;-79
2024/03/28 04:02:47;;;;;;;;;;;;;;;8.11;100.00;97721.63;5053810;28;19919;-80
2024/03/28 04:05:12;;;;;;;;;;;;;;;8.10;100.00;97717.31;5040434;28;19912;-79
2024/03/28 04:07:38;;;;;;;;;;;;;;;8.11;100.00;97705.13;5053994;28;19916;-78
2024/03/28 04:10:03;;;;;;;;;;;;;;;8.20;100.00;97720.94;5053473;28;19925;-79
2024/03/28 04:12:29;;;;;;;;;;;;;;;8.13;100.00;97733.72;5053779;28;20299;-80
2024/03/28 04:14:54;;;;;;;;;;;;;;;8.20;100.00;97746.47;5053508;28;19917;-80
2024/03/28 04:17:19;;;;;;;;;;;;;;;8.14;100.00;97754.50;5043266;28;20373;-80
2024/03/28 04:19:45;;;;;;;;;;;;;;;8.13;100.00;97752.22;5050562;28;20306;-79
2024/03/28 04:22:11;;;;;;;;;;;;;;;8.29;100.00;97757.56;5043430;28;19920;-81
2024/03/28 04:24:36;;;;;;;;;;;;;;;8.36;100.00;97762.09;5050085;28;19913;-80
2024/03/28 04:27:02;;;;;;;;;;;;;;;8.34;100.00;97764.50;5053342;28;20364;-80
2024/03/28 04:29:27;;;;;;;;;;;;;;;8.32;100.00;97772.47;5050531;28;19921;-80
2024/03/28 04:31:52;;;;;;;;;;;;;;;8.31;100.00;97779.94;5043886;28;19924;-80
2024/03/28 04:34:17;;;;;;;;;;;;;;;8.33;100.00;97771.22;5054353;28;19939;-81
2024/03/28 04:36:43;;;;;;;;;;;;;;;8.39;100.00;97777.72;5053323;28;20004;-80
2024/03/28 04:39:09;;;;;;;;;;;;;;;8.41;100.00;97787.06;5053184;28;19912;-80
2024/03/28 04:41:35;;;;;;;;;;;;;;;8.51;100.00;97785.94;5054063;28;20014;-79
2024/03/28 04:44:00;;;;;;;;;;;;;;;8.49;100.00;97788.38;5052972;28;19938;-80
2024/03/28 04:46:25;;;;;;;;;;;;;;;8.65;100.00;97773.69;5052800;28;19912;-80
2024/03/28 04:48:50;;;;;;;;;;;;;;;8.77;100.00;97786.63;5050328;28;20426;-79
2024/03/28 04:51:16;;;;;;;;;;;;;;;8.82;100.00;97777.78;5041239;28;19916;-81
2024/03/28 04:53:41;;;;;;;;;;;;;;;8.82;100.00;97774.28;5052407;28;19915;-80
2024/03/28 04:56:10;;;;;;;;;;;;;;;9.02;100.00;97769.22;5045179;28;19995;-80
2024/03/28 04:58:35;;;;;;;;;;;;;;;9.34;100.00;97762.56;5049069;28;20007;-81
2024/03/28 05:01:00;;;;;;;;;;;;;;;9.55;100.00;97766.47;5043451;28;20000;-80
2024/03/28 05:03:25;;;;;;;;;;;;;;;9.79;100.00;97751.72;5045908;28;19925;-81
2024/03/28 05:05:51;;;;;;;;;;;;;;;9.72;100.00;97765.03;5042378;28;19995;-80
2024/03/28 05:08:17;;;;;;;;;;;;;;;9.79;100.00;97782.06;5038971;28;19917;-81
2024/03/28 05:10:42;;;;;;;;;;;;;;;9.89;100.00;97773.81;5052181;28;19912;-80
2024/03/28 05:13:07;;;;;;;;;;;;;;;9.73;100.00;97766.56;5052148;28;19940;-80
2024/03/28 05:15:32;;;;;;;;;;;;;;;9.66;100.00;97748.28;5052399;28;19927;-80
2024/03/28 05:17:58;;;;;;;;;;;;;;;9.92;100.00;97759.91;5038836;28;19913;-81
2024/03/28 05:20:23;;;;;;;;;;;;;;;10.13;100.00;97755.50;5052070;28;19913;-80
2024/03/28 05:22:49;;;;;;;;;;;;;;;10.16;100.00;97758.16;5053190;28;19920;-79
2024/03/28 05:25:14;;;;;;;;;;;;;;;10.80;100.00;97774.03;5053270;28;19919;-80
2024/03/28 05:27:40;;;;;;;;;;;;;;;11.44;100.00;97777.50;5038835;28;20390;-80
2024/03/28 05:30:06;;;;;;;;;;;;;;;11.81;100.00;97786.50;5055023;28;20006;-79
2024/03/28 05:32:31;;;;;;;;;;;;;;;12.10;100.00;97783.91;5077335;28;19916;-80
2024/03/28 05:34:56;;;;;;;;;;;;;;;12.49;100.00;97770.13;5077639;28;19901;-80
2024/03/28 05:37:22;;;;;;;;;;;;;;;13.00;98.43;97767.16;5063060;28;19921;-79
2024/03/28 05:39:47;;;;;;;;;;;;;;;13.36;93.22;97768.84;5077520;28;19920;-79
2024/03/28 05:42:12;;;;;;;;;;;;;;;13.76;91.96;97771.03;5077077;28;19922;-79
2024/03/28 05:44:37;;;;;;;;;;;;;;;14.48;88.93;97779.69;5075383;28;19897;-82
2024/03/28 05:47:03;;;;;;;;;;;;;;;14.93;82.70;97797.72;5053001;28;19924;-81
2024/03/28 05:49:28;;;;;;;;;;;;;;;15.29;78.14;97813.03;5052845;28;20441;-82
2024/03/28 05:51:53;;;;;;;;;;;;;;;15.11;80.35;97825.25;5051801;28;19920;-80
2024/03/28 05:54:18;;;;;;;;;;;;;;;15.28;81.51;97820.63;5041953;28;19917;-82
2024/03/28 05:56:44;;;;;;;;;;;;;;;15.69;78.66;97812.19;5048626;28;20388;-81
2024/03/28 05:59:09;;;;;;;;;;;;;;;15.77;76.89;97799.38;5052106;28;19912;-79
2024/03/28 06:01:35;;;;;;;;;;;;;;;15.71;76.97;97809.69;5036764;28;19913;-81
2024/03/28 06:04:00;;;;;;;;;;;;;;;15.86;78.38;97801.97;5032635;28;19913;-80
2024/03/28 06:06:25;;;;;;;;;;;;;;;16.06;77.67;97813.03;5027240;28;19909;-81
2024/03/28 06:08:50;;;;;;;;;;;;;;;16.70;76.24;97836.03;5023033;28;20028;-82
2024/03/28 06:11:16;;;;;;;;;;;;;;;17.38;71.66;97819.81;5029621;28;19920;-80
2024/03/28 06:13:42;;;;;;;;;;;;;;;17.90;68.82;97814.59;5028901;28;20421;-81
2024/03/28 06:16:07;;;;;;;;;;;;;;;17.99;65.57;97821.19;5025740;28;20467;-80
2024/03/28 06:18:32;;;;;;;;;;;;;;;18.39;64.18;97837.44;5024716;28;19909;-82
2024/03/28 06:20:58;;;;;;;;;;;;;;;19.17;61.84;97819.72;5044781;28;19987;-79
2024/03/28 06:23:24;;;;;;;;;;;;;;;20.00;58.93;97832.47;5038692;28;20403;-79
2024/03/28 06:25:49;;;;;;;;;;;;;;;20.92;54.01;97828.56;5038410;28;19920;-80
2024/03/28 06:28:18;;;;;;;;;;;;;;;20.44;53.04;97836.97;5032276;28;19939;-79
2024/03/28 06:30:43;;;;;;;;;;;;;;;19.85;56.80;97835.63;5051805;28;19916;-81
2024/03/28 06:33:09;;;;;;;;;;;;;;;20.68;53.41;97840.56;5046813;28;20000;-81
2024/03/28 06:35:34;;;;;;;;;;;;;;;19.32;57.19;97846.13;5032123;28;19912;-80
2024/03/28 06:37:59;;;;;;;;;;;;;;;18.89;58.81;97862.56;5039796;28;19913;-80
2024/03/28 06:40:25;;;;;;;;;;;;;;;17.61;67.08;97851.38;5036248;28;19959;-82
2024/03/28 06:42:50;;;;;;;;;;;;;;;17.78;67.90;97863.34;5051342;28;20376;-81
2024/03/28 06:45:15;;;;;;;;;;;;;;;19.08;60.98;97890.75;5047009;28;19920;-79
2024/03/28 06:47:41;;;;;;;;;;;;;;;19.35;60.18;97903.16;5043026;28;19913;-80
2024/03/28 06:50:06;;;;;;;;;;;;;;;19.83;58.74;97897.81;5051935;28;19990;-82
2024/03/28 06:52:31;;;;;;;;;;;;;;;21.19;53.84;97891.34;5052133;28;20438;-80
2024/03/28 06:54:57;;;;;;;;;;;;;;;21.93;50.47;97893.47;5050524;28;19912;-81
2024/03/28 06:57:23;;;;;;;;;;;;;;;22.51;48.69;97890.03;5038452;28;19917;-82
2024/03/28 06:59:51;;;;;;;;;;;;;;;23.23;46.41;97890.78;5046367;28;20007;-82
2024/03/28 07:02:16;;;;;;;;;;;;;;;23.94;44.23;97915.97;5049371;28;20018;-82
2024/03/28 07:04:41;;;;;;;;;;;;;;;24.37;43.99;97914.75;5047310;28;20392;-83
2024/03/28 07:07:07;;;;;;;;;;;;;;;25.19;41.56;97918.09;5037532;28;19909;-80
2024/03/28 07:09:32;;;;;;;;;;;;;;;26.13;40.14;97932.34;5033028;28;20010;-82
2024/03/28 07:11:57;;;;;;;;;;;;;;;26.24;38.50;97945.44;5048427;28;20009;-84
2024/03/28 07:14:23;;;;;;;;;;;;;;;26.33;39.00;97954.16;5035850;28;20296;-82
2024/03/28 07:16:48;;;;;;;;;;;;;;;26.37;39.98;97936.78;5038494;28;19909;-81
2024/03/28 07:19:13;;;;;;;;;;;;;;;25.74;40.69;97956.16;5048135;28;19959;-83
2024/03/28 07:21:38;;;;;;;;;;;;;;;25.03;42.37;97962.44;5051035;28;19913;-81
2024/03/28 07:24:04;;;;;;;;;;;;;;;23.81;45.30;97968.88;5051031;28;19908;-81
2024/03/28 07:26:29;;;;;;;;;;;;;;;22.46;47.97;97975.34;5036120;28;19955;-77
2024/03/28 07:28:55;;;;;;;;;;;;;;;22.18;49.10;97969.38;5038024;28;19931;-79
2024/03/28 07:31:20;;;;;;;;;;;;;;;21.74;50.44;97988.31;5034437;28;19998;-80
2024/03/28 07:33:45;;;;;;;;;;;;;;;21.55;52.30;97986.75;5049532;28;20361;-79
2024/03/28 07:36:11;;;;;;;;;;;;;;;21.41;54.16;97978.19;5035903;28;19913;-80
2024/03/28 07:38:37;;;;;;;;;;;;;;;21.33;54.62;97959.66;5039499;28;19995;-79
2024/03/28 07:41:02;;;;;;;;;;;;;;;21.66;53.09;97952.88;5049204;28;20404;-79
2024/03/28 07:43:28;;;;;;;;;;;;;;;22.04;54.05;97943.19;5038892;28;19912;-81
2024/03/28 07:46:00;;;;;;;;;;;;;;;22.37;52.27;97947.56;5043558;28;19952;-78
2024/03/28 07:48:25;;;;;;;;;;;;;;;22.75;50.15;97953.13;5042916;28;19920;-79
2024/03/28 07:51:01;;;;;;;;;;;;;;;22.45;49.16;97962.53;5049558;28;20345;-79
2024/03/28 07:53:30;;;;;;;;;;;;;;;21.93;52.01;97977.84;5050141;28;19924;-83
2024/03/28 07:55:55;;;;;;;;;;;;;;;21.50;50.84;97972.25;5024231;28;19913;-79
2024/03/28 07:58:21;;;;;;;;;;;;;;;21.52;52.24;97982.94;5049096;28;20294;-80
2024/03/28 08:00:47;;;;;;;;;;;;;;;21.68;51.57;97981.22;5050366;28;20308;-83
2024/03/28 08:03:16;;;;;;;;;;;;;;;21.89;51.04;97990.66;5049411;28;20011;-83
2024/03/28 08:05:49;;;;;;;;;;;;;;;22.05;50.33;97988.97;5038776;28;19917;-79
2024/03/28 08:08:15;;;;;;;;;;;;;;;22.25;48.88;97988.44;5050843;28;19958;-79
2024/03/28 08:10:40;;;;;;;;;;;;;;;22.36;48.16;97991.09;5040920;28;19975;-81
2024/03/28 08:13:06;;;;;;;;;;;;;;;22.33;48.42;98003.41;5043035;28;20358;-80
2024/03/28 08:15:33;;;;;;;;;;;;;;;22.44;47.63;98002.47;5031019;28;19967;-80
2024/03/28 08:17:59;;;;;;;;;;;;;;;22.27;47.98;98016.81;5043164;28;19912;-84
2024/03/28 08:20:24;;;;;;;;;;;;;;;22.47;48.63;98013.44;5040083;28;19915;-78
2024/03/28 08:22:50;;;;;;;;;;;;;;;21.95;47.60;98019.53;5049191;28;20305;-84
2024/03/28 08:25:16;;;;;;;;;;;;;;;21.65;48.90;98013.97;5049258;28;19991;-81
2024/03/28 08:27:41;;;;;;;;;;;;;;;21.43;49.48;98028.28;5051799;28;19990;-80
2024/03/28 08:30:06;;;;;;;;;;;;;;;21.03;51.66;98041.91;5053218;28;19920;-79
2024/03/28 08:32:32;;;;;;;;;;;;;;;20.66;51.55;98039.63;5053967;28;20296;-79
2024/03/28 08:34:58;;;;;;;;;;;;;;;20.79;51.05;98035.47;5053038;28;19912;-80
2024/03/28 08:37:23;;;;;;;;;;;;;;;20.42;52.10;98031.13;5052041;28;19908;-80
2024/03/28 08:39:49;;;;;;;;;;;;;;;20.25;52.27;98031.16;5036406;28;19955;-82
2024/03/28 08:42:14;;;;;;;;;;;;;;;20.70;53.08;98031.69;5051905;28;20008;-79
2024/03/28 08:44:39;;;;;;;;;;;;;;;21.50;49.88;98030.50;5052941;28;20388;-79
2024/03/28 08:47:05;;;;;;;;;;;;;;;22.00;48.50;98029.19;5040605;28;19908;-80
2024/03/28 08:49:30;;;;;;;;;;;;;;;22.57;47.63;98028.66;5044763;28;19932;-79
2024/03/28 08:51:56;;;;;;;;;;;;;;;22.83;47.20;98027.28;5046939;28;19916;-79
2024/03/28 08:54:24;;;;;;;;;;;;;;;23.08;47.17;98034.28;5053734;28;19913;-80
2024/03/28 08:56:49;;;;;;;;;;;;;;;23.19;44.33;98031.28;5052600;28;19909;-80
2024/03/28 08:59:14;;;;;;;;;;;;;;;23.47;43.73;98033.63;5053221;28;19913;-83
2024/03/28 09:01:40;;;;;;;;;;;;;;;22.97;45.54;98040.09;5051964;28;20424;-81
2024/03/28 09:04:07;;;;;;;;;;;;;;;23.02;45.62;98042.84;5044784;28;19920;-81
2024/03/28 09:06:32;;;;;;;;;;;;;;;22.80;45.93;98033.97;5045406;28;19912;-81
2024/03/28 09:08:58;;;;;;;;;;;;;;;23.18;44.83;98035.38;5040149;28;19915;-81
2024/03/28 09:11:26;;;;;;;;;;;;;;;22.89;42.53;98036.41;5051795;28;20394;-82
2024/03/28 09:13:52;;;;;;;;;;;;;;;22.84;42.99;98035.19;5043994;28;19966;-81
2024/03/28 09:16:17;;;;;;;;;;;;;;;22.73;42.14;98026.91;5046663;28;19913;-82
2024/03/28 09:18:42;;;;;;;;;;;;;;;22.60;45.42;98024.03;5044470;28;19945;-83
2024/03/28 09:21:11;;;;;;;;;;;;;;;22.67;42.42;98018.50;5034489;28;20377;-81
2024/03/28 09:23:37;;;;;;;;;;;;;;;22.73;44.05;98019.22;5051790;28;19951;-81
2024/03/28 09:26:02;;;;;;;;;;;;;;;22.73;46.51;98015.63;5050618;28;19952;-81
2024/03/28 09:28:27;;;;;;;;;;;;;;;22.68;45.27;98022.84;5036946;28;19915;-85
2024/03/28 09:30:53;;;;;;;;;;;;;;;23.02;45.44;98023.13;5046713;28;19967;-81
2024/03/28 09:33:19;;;;;;;;;;;;;;;23.18;45.27;98012.84;5051756;28;19912;-83
2024/03/28 09:35:46;;;;;;;;;;;;;;;22.94;45.80;98005.31;5037217;28;19916;-81
2024/03/28 09:38:11;;;;;;;;;;;;;;;22.84;43.65;98003.44;5049331;28;20031;-85
2024/03/28 09:40:41;;;;;;;;;;;;;;;22.46;43.27;97994.28;5050010;28;20363;-82
2024/03/28 09:43:07;;;;;;;;;;;;;;;22.66;45.45;97991.66;5042829;28;19917;-84
2024/03/28 09:45:32;;;;;;;;;;;;;;;22.40;45.74;97965.44;5043704;28;19908;-83
2024/03/28 09:47:58;;;;;;;;;;;;;;;22.70;44.67;97988.53;5038116;28;19909;-82
2024/03/28 09:50:23;;;;;;;;;;;;;;;22.64;42.64;97997.06;5037748;28;20373;-81
2024/03/28 09:52:49;;;;;;;;;;;;;;;22.73;43.49;97993.84;5049029;28;19912;-85
2024/03/28 09:55:15;;;;;;;;;;;;;;;22.73;43.17;97993.09;5048497;28;19908;-85
2024/03/28 09:57:41;;;;;;;;;;;;;;;22.69;43.93;97993.41;5030192;28;19920;-85
2024/03/28 10:00:08;;;;;;;;;;;;;;;22.51;43.82;97991.38;5045175;28;19913;-85
2024/03/28 10:02:40;;;;;;;;;;;;;;;22.33;43.22;97992.16;5051992;28;20026;-81
2024/03/28 10:05:05;;;;;;;;;;;;;;;22.32;43.16;97985.00;5051044;28;19959;-82
2024/03/28 10:07:30;;;;;;;;;;;;;;;22.31;42.55;97981.44;5050595;28;20002;-80
2024/03/28 10:09:56;;;;;;;;;;;;;;;22.41;44.22;97976.19;5046675;28;19912;-80
2024/03/28 10:12:22;;;;;;;;;;;;;;;22.36;43.55;97979.09;5051113;28;19917;-80
2024/03/28 10:14:54;;;;;;;;;;;;;;;22.05;45.31;97978.50;5048802;28;20370;-84
2024/03/28 10:17:20;;;;;;;;;;;;;;;21.91;43.75;97979.66;5041102;28;19943;-82
2024/03/28 10:20:01;;;;;;;;;;;;;;;21.50;45.40;97977.09;5037924;28;19913;-80
2024/03/28 10:22:27;;;;;;;;;;;;;;;21.87;45.79;97974.34;5051088;28;20003;-81
2024/03/28 10:24:52;;;;;;;;;;;;;;;22.16;44.06;97988.81;5050199;28;19947;-82
2024/03/28 10:27:20;;;;;;;;;;;;;;;22.36;45.43;97976.25;5047537;28;19971;-82
2024/03/28 10:29:55;;;;;;;;;;;;;;;22.13;43.32;97989.88;5026457;28;20355;-81
2024/03/28 10:32:21;;;;;;;;;;;;;;;22.15;42.94;97987.28;5038875;28;19921;-80
2024/03/28 10:34:47;;;;;;;;;;;;;;;22.28;43.26;97973.31;5031110;28;19913;-80
2024/03/28 10:37:16;;;;;;;;;;;;;;;22.28;42.63;97978.94;5031534;28;19913;-79
2024/03/28 10:39:48;;;;;;;;;;;;;;;22.29;42.02;97988.91;5031341;28;19924;-79
2024/03/28 10:42:14;;;;;;;;;;;;;;;22.38;41.17;97988.50;5037988;28;20384;-81
2024/03/28 10:44:42;;;;;;;;;;;;;;;22.49;41.90;97982.69;5023272;28;19921;-80
2024/03/28 10:47:15;;;;;;;;;;;;;;;22.44;42.77;97983.53;5041789;28;19921;-81
2024/03/28 10:49:54;;;;;;;;;;;;;;;22.36;41.67;97977.03;5042403;28;19925;-80
2024/03/28 10:52:31;;;;;;;;;;;;;;;22.47;40.64;97985.31;5034665;28;19921;-79
2024/03/28 10:55:03;;;;;;;;;;;;;;;22.53;41.49;97974.72;5036983;28;20296;-82
2024/03/28 10:57:30;;;;;;;;;;;;;;;22.28;42.02;97974.06;5020977;28;19963;-80
2024/03/28 10:59:55;;;;;;;;;;;;;;;22.57;41.12;97965.94;5048613;28;19912;-80
2024/03/28 11:02:22;;;;;;;;;;;;;;;22.82;41.67;97961.72;5043378;28;20346;-83
2024/03/28 11:04:49;;;;;;;;;;;;;;;22.96;43.71;97956.88;5028183;28;19919;-81
2024/03/28 11:07:15;;;;;;;;;;;;;;;23.08;42.94;97963.84;5034037;28;20312;-80
2024/03/28 11:09:41;;;;;;;;;;;;;;;22.66;42.45;97969.13;5040885;28;20397;-82
2024/03/28 11:12:07;;;;;;;;;;;;;;;22.62;43.39;97957.41;5038315;28;19970;-82
2024/03/28 11:14:33;;;;;;;;;;;;;;;22.67;42.58;97956.56;5037336;28;19940;-80
2024/03/28 11:17:05;;;;;;;;;;;;;;;22.71;42.04;97942.94;5038739;28;19925;-85
2024/03/28 11:19:31;;;;;;;;;;;;;;;22.88;42.79;97947.53;5037973;28;20138;-79
2024/03/28 11:21:57;;;;;;;;;;;;;;;23.07;42.39;97945.41;5030914;28;20024;-79
2024/03/28 11:24:28;;;;;;;;;;;;;;;22.93;40.50;97946.69;5045277;28;19917;-80
2024/03/28 11:26:58;;;;;;;;;;;;;;;22.90;43.68;97944.94;5036875;28;19917;-82
2024/03/28 11:29:24;;;;;;;;;;;;;;;22.93;43.31;97936.16;5037132;28;19924;-82
2024/03/28 11:31:56;;;;;;;;;;;;;;;22.85;42.78;97931.69;5037498;28;20316;-78
2024/03/28 11:34:25;;;;;;;;;;;;;;;23.06;42.83;97924.91;5033078;28;20063;-80
2024/03/28 11:36:52;;;;;;;;;;;;;;;23.07;42.80;97918.00;5032380;28;19917;-82
2024/03/28 11:39:17;;;;;;;;;;;;;;;22.97;40.71;97908.44;5030037;28;19988;-80
2024/03/28 11:41:42;;;;;;;;;;;;;;;22.85;40.74;97909.16;5033803;28;19949;-82
2024/03/28 11:44:08;;;;;;;;;;;;;;;22.64;39.78;97903.38;5030919;28;20316;-81
2024/03/28 11:46:33;;;;;;;;;;;;;;;22.69;39.13;97894.06;5032465;28;19917;-78
2024/03/28 11:48:59;;;;;;;;;;;;;;;22.69;40.46;97897.66;5038645;28;20012;-83
2024/03/28 11:51:24;;;;;;;;;;;;;;;22.49;38.78;97895.41;5031824;28;19924;-80
2024/03/28 11:53:50;;;;;;;;;;;;;;;22.39;40.53;97885.09;5042719;28;19923;-80
2024/03/28 11:56:18;;;;;;;;;;;;;;;22.46;41.93;97890.13;5035389;28;19924;-83
2024/03/28 11:58:43;;;;;;;;;;;;;;;22.46;41.57;97884.47;5031073;28;19916;-82
2024/03/28 12:01:09;;;;;;;;;;;;;;;22.58;40.85;97883.75;5045184;28;19916;-80
2024/03/28 12:03:35;;;;;;;;;;;;;;;22.58;41.60;97869.69;5043437;28;19982;-81
2024/03/28 12:06:01;;;;;;;;;;;;;;;22.66;39.69;97867.75;5042857;28;20355;-79
2024/03/28 12:08:28;;;;;;;;;;;;;;;22.77;38.84;97857.59;5051417;28;19916;-79
2024/03/28 12:10:59;;;;;;;;;;;;;;;22.82;37.08;97874.41;5033509;28;20305;-80
2024/03/28 12:13:25;;;;;;;;;;;;;;;22.96;36.72;97863.91;5032044;28;19928;-80
2024/03/28 12:15:57;;;;;;;;;;;;;;;23.11;36.46;97875.38;5045049;28;19924;-79
2024/03/28 12:18:22;;;;;;;;;;;;;;;23.07;36.34;97878.53;5046996;28;19917;-82
2024/03/28 12:20:48;;;;;;;;;;;;;;;22.95;36.31;97865.97;5038475;28;19917;-80
2024/03/28 12:23:13;;;;;;;;;;;;;;;23.08;36.21;97879.31;5045114;28;19913;-79
2024/03/28 12:25:45;;;;;;;;;;;;;;;23.25;36.04;97874.09;5040624;28;19970;-81
2024/03/28 12:28:16;;;;;;;;;;;;;;;23.34;36.06;97872.88;5044985;28;19913;-82
2024/03/28 12:30:47;;;;;;;;;;;;;;;23.42;33.39;97868.88;5054281;28;20410;-83
2024/03/28 12:33:13;;;;;;;;;;;;;;;23.55;33.73;97870.19;5054038;28;20449;-81
2024/03/28 12:35:38;;;;;;;;;;;;;;;23.54;33.78;97863.78;5039053;28;19944;-81
2024/03/28 12:38:03;;;;;;;;;;;;;;;23.62;34.08;97869.53;5051797;28;19917;-80
2024/03/28 12:40:30;;;;;;;;;;;;;;;23.42;34.06;97868.09;5051919;28;19919;-81
2024/03/28 12:42:56;;;;;;;;;;;;;;;23.49;35.87;97868.25;5034599;28;19963;-83
2024/03/28 12:45:21;;;;;;;;;;;;;;;23.64;36.09;97876.09;5038801;28;19916;-83
2024/03/28 12:47:47;;;;;;;;;;;;;;;23.72;37.97;97873.38;5048378;28;20000;-82